sensor_id;sensor_type;location;lat;lon;timestamp;temperature;humidity
35633;DHT22;21754;48.216;-1.628;2022-10-16T03:12:52;19.70;99.90
35633;DHT22;21754;48.216;-1.628;2022-10-16T03:15:18;17.60;99.90
35633;DHT22;21754;48.216;-1.628;2022-10-16T03:17:43;17.70;99.90
35633;DHT22;21754;48.216;-1.628;2022-10-16T03:20:09;17.70;99.90
35633;DHT22;21754;48.216;-1.628;2022-10-16T03:22:35;17.80;99.90
35633;DHT22;21754;48.216;-1.628;2022-10-16T03:25:01;17.90;99.90
35633;DHT22;21754;48.216;-1.628;2022-10-16T03:27:26;17.90;99.90
35633;DHT22;21754;48.216;-1.628;2022-10-16T03:29:52;18.00;99.90
35633;DHT22;21754;48.216;-1.628;2022-10-16T03:32:17;18.10;99.90
35633;DHT22;21754;48.216;-1.628;2022-10-16T03:34:43;18.10;99.90
35633;DHT22;21754;48.216;-1.628;2022-10-16T03:37:09;18.20;99.90
35633;DHT22;21754;48.216;-1.628;2022-10-16T03:39:35;18.20;99.90
35633;DHT22;21754;48.216;-1.628;2022-10-16T03:42:01;18.20;99.90
35633;DHT22;21754;48.216;-1.628;2022-10-16T03:44:26;18.20;99.90
35633;DHT22;21754;48.216;-1.628;2022-10-16T03:46:52;18.20;99.90
35633;DHT22;21754;48.216;-1.628;2022-10-16T03:49:18;18.30;99.90
35633;DHT22;21754;48.216;-1.628;2022-10-16T03:51:43;18.30;99.90
35633;DHT22;21754;48.216;-1.628;2022-10-16T03:54:10;18.30;99.90
35633;DHT22;21754;48.216;-1.628;2022-10-16T03:56:35;18.30;99.90
35633;DHT22;21754;48.216;-1.628;2022-10-16T03:59:01;18.30;99.90
35633;DHT22;21754;48.216;-1.628;2022-10-16T04:01:26;18.30;99.90
35633;DHT22;21754;48.216;-1.628;2022-10-16T04:03:52;18.40;99.90
35633;DHT22;21754;48.216;-1.628;2022-10-16T04:06:18;18.40;99.90
35633;DHT22;21754;48.216;-1.628;2022-10-16T04:08:44;18.40;99.90
35633;DHT22;21754;48.216;-1.628;2022-10-16T04:11:10;18.40;99.90
35633;DHT22;21754;48.216;-1.628;2022-10-16T04:13:36;18.40;99.90
35633;DHT22;21754;48.216;-1.628;2022-10-16T04:16:01;18.50;99.90
35633;DHT22;21754;48.216;-1.628;2022-10-16T04:18:27;18.50;99.90
35633;DHT22;21754;48.216;-1.628;2022-10-16T04:20:53;18.50;99.90
35633;DHT22;21754;48.216;-1.628;2022-10-16T04:23:19;18.60;99.90
35633;DHT22;21754;48.216;-1.628;2022-10-16T04:25:45;18.60;99.90
35633;DHT22;21754;48.216;-1.628;2022-10-16T04:28:11;18.60;99.90
35633;DHT22;21754;48.216;-1.628;2022-10-16T04:30:38;18.60;99.90
35633;DHT22;21754;48.216;-1.628;2022-10-16T04:33:04;18.60;99.90
35633;DHT22;21754;48.216;-1.628;2022-10-16T04:35:30;18.60;99.90
35633;DHT22;21754;48.216;-1.628;2022-10-16T04:37:57;18.60;99.90
35633;DHT22;21754;48.216;-1.628;2022-10-16T04:40:23;18.60;99.90
35633;DHT22;21754;48.216;-1.628;2022-10-16T04:42:49;18.70;99.90
35633;DHT22;21754;48.216;-1.628;2022-10-16T04:45:14;18.70;99.90
35633;DHT22;21754;48.216;-1.628;2022-10-16T04:47:40;18.60;99.90
35633;DHT22;21754;48.216;-1.628;2022-10-16T04:50:06;18.60;99.90
35633;DHT22;21754;48.216;-1.628;2022-10-16T04:52:32;18.70;99.90
35633;DHT22;21754;48.216;-1.628;2022-10-16T04:54:58;18.70;99.90
35633;DHT22;21754;48.216;-1.628;2022-10-16T04:57:27;18.70;99.90
35633;DHT22;21754;48.216;-1.628;2022-10-16T04:59:53;18.70;99.90
35633;DHT22;21754;48.216;-1.628;2022-10-16T05:02:19;18.70;99.90
35633;DHT22;21754;48.216;-1.628;2022-10-16T05:04:45;18.70;99.90
35633;DHT22;21754;48.216;-1.628;2022-10-16T05:07:11;18.80;99.90
35633;DHT22;21754;48.216;-1.628;2022-10-16T05:09:36;18.70;99.90
35633;DHT22;21754;48.216;-1.628;2022-10-16T05:12:02;18.80;99.90
35633;DHT22;21754;48.216;-1.628;2022-10-16T05:14:29;18.80;99.90
35633;DHT22;21754;48.216;-1.628;2022-10-16T05:16:54;18.80;99.90
35633;DHT22;21754;48.216;-1.628;2022-10-16T05:19:20;18.80;99.90
35633;DHT22;21754;48.216;-1.628;2022-10-16T05:21:46;18.80;99.90
35633;DHT22;21754;48.216;-1.628;2022-10-16T05:24:11;18.80;99.90
35633;DHT22;21754;48.216;-1.628;2022-10-16T05:26:37;18.80;99.90
35633;DHT22;21754;48.216;-1.628;2022-10-16T05:29:03;18.80;99.90
35633;DHT22;21754;48.216;-1.628;2022-10-16T05:31:28;18.80;99.90
35633;DHT22;21754;48.216;-1.628;2022-10-16T05:33:58;18.80;99.90
35633;DHT22;21754;48.216;-1.628;2022-10-16T05:36:24;18.80;99.90
35633;DHT22;21754;48.216;-1.628;2022-10-16T05:38:51;18.80;99.90
35633;DHT22;21754;48.216;-1.628;2022-10-16T05:41:18;18.80;99.90
35633;DHT22;21754;48.216;-1.628;2022-10-16T05:43:47;18.80;99.90
35633;DHT22;21754;48.216;-1.628;2022-10-16T05:46:14;18.80;99.90
35633;DHT22;21754;48.216;-1.628;2022-10-16T05:48:40;18.90;99.90
35633;DHT22;21754;48.216;-1.628;2022-10-16T05:51:08;18.90;99.90
35633;DHT22;21754;48.216;-1.628;2022-10-16T05:53:36;18.90;99.90
35633;DHT22;21754;48.216;-1.628;2022-10-16T05:56:03;18.90;99.90
35633;DHT22;21754;48.216;-1.628;2022-10-16T05:58:33;18.90;99.90
35633;DHT22;21754;48.216;-1.628;2022-10-16T06:03:27;18.80;99.90
35633;DHT22;21754;48.216;-1.628;2022-10-16T06:05:54;18.70;99.90
35633;DHT22;21754;48.216;-1.628;2022-10-16T06:08:21;18.80;99.90
35633;DHT22;21754;48.216;-1.628;2022-10-16T06:10:47;18.80;99.90
35633;DHT22;21754;48.216;-1.628;2022-10-16T06:13:14;18.90;99.90
35633;DHT22;21754;48.216;-1.628;2022-10-16T06:15:41;18.90;99.90
35633;DHT22;21754;48.216;-1.628;2022-10-16T06:18:08;18.90;99.90
35633;DHT22;21754;48.216;-1.628;2022-10-16T06:20:34;18.90;99.90
35633;DHT22;21754;48.216;-1.628;2022-10-16T06:23:00;18.90;99.90
35633;DHT22;21754;48.216;-1.628;2022-10-16T06:25:26;19.00;99.90
35633;DHT22;21754;48.216;-1.628;2022-10-16T06:27:51;19.00;99.90
35633;DHT22;21754;48.216;-1.628;2022-10-16T06:30:17;19.00;99.90
35633;DHT22;21754;48.216;-1.628;2022-10-16T06:32:43;19.00;99.90
35633;DHT22;21754;48.216;-1.628;2022-10-16T06:35:08;19.00;99.90
35633;DHT22;21754;48.216;-1.628;2022-10-16T06:37:34;19.00;99.90
35633;DHT22;21754;48.216;-1.628;2022-10-16T06:39:59;19.00;99.90
35633;DHT22;21754;48.216;-1.628;2022-10-16T06:42:25;19.00;99.90
35633;DHT22;21754;48.216;-1.628;2022-10-16T06:44:51;19.00;99.90
35633;DHT22;21754;48.216;-1.628;2022-10-16T06:47:17;19.00;99.90
35633;DHT22;21754;48.216;-1.628;2022-10-16T06:49:43;19.00;99.90
35633;DHT22;21754;48.216;-1.628;2022-10-16T06:52:08;19.00;99.90
35633;DHT22;21754;48.216;-1.628;2022-10-16T06:54:34;18.90;99.90
35633;DHT22;21754;48.216;-1.628;2022-10-16T06:57:00;18.90;99.90
35633;DHT22;21754;48.216;-1.628;2022-10-16T06:59:27;19.00;99.90
35633;DHT22;21754;48.216;-1.628;2022-10-16T07:01:52;18.90;99.90
35633;DHT22;21754;48.216;-1.628;2022-10-16T07:04:18;18.80;99.90
35633;DHT22;21754;48.216;-1.628;2022-10-16T07:06:43;18.80;99.90
35633;DHT22;21754;48.216;-1.628;2022-10-16T07:09:10;18.80;99.90
35633;DHT22;21754;48.216;-1.628;2022-10-16T07:11:38;18.80;99.90
35633;DHT22;21754;48.216;-1.628;2022-10-16T07:14:04;18.80;99.90
35633;DHT22;21754;48.216;-1.628;2022-10-16T07:16:32;18.80;99.90
35633;DHT22;21754;48.216;-1.628;2022-10-16T07:18:59;18.80;99.90
35633;DHT22;21754;48.216;-1.628;2022-10-16T07:21:26;18.80;99.90
35633;DHT22;21754;48.216;-1.628;2022-10-16T07:23:53;18.80;99.90
35633;DHT22;21754;48.216;-1.628;2022-10-16T07:26:20;18.80;99.90
35633;DHT22;21754;48.216;-1.628;2022-10-16T07:28:46;18.80;99.90
35633;DHT22;21754;48.216;-1.628;2022-10-16T07:31:13;18.90;99.90
35633;DHT22;21754;48.216;-1.628;2022-10-16T07:33:40;19.00;99.90
35633;DHT22;21754;48.216;-1.628;2022-10-16T07:36:07;19.00;99.90
35633;DHT22;21754;48.216;-1.628;2022-10-16T07:38:33;19.00;99.90
35633;DHT22;21754;48.216;-1.628;2022-10-16T07:41:07;19.00;99.90
35633;DHT22;21754;48.216;-1.628;2022-10-16T07:43:33;19.10;99.90
35633;DHT22;21754;48.216;-1.628;2022-10-16T07:45:59;19.10;99.90
35633;DHT22;21754;48.216;-1.628;2022-10-16T07:48:28;19.10;99.90
35633;DHT22;21754;48.216;-1.628;2022-10-16T07:51:00;19.10;99.90
35633;DHT22;21754;48.216;-1.628;2022-10-16T07:53:26;19.10;99.90
35633;DHT22;21754;48.216;-1.628;2022-10-16T07:55:56;19.20;99.90
35633;DHT22;21754;48.216;-1.628;2022-10-16T07:58:23;19.30;99.90
35633;DHT22;21754;48.216;-1.628;2022-10-16T08:00:48;19.30;99.90
35633;DHT22;21754;48.216;-1.628;2022-10-16T08:03:14;19.40;99.90
35633;DHT22;21754;48.216;-1.628;2022-10-16T08:05:39;19.40;99.90
35633;DHT22;21754;48.216;-1.628;2022-10-16T08:08:05;19.40;99.90
35633;DHT22;21754;48.216;-1.628;2022-10-16T08:10:31;19.40;99.90
35633;DHT22;21754;48.216;-1.628;2022-10-16T08:12:57;19.50;99.90
35633;DHT22;21754;48.216;-1.628;2022-10-16T08:15:23;19.50;99.90
35633;DHT22;21754;48.216;-1.628;2022-10-16T08:18:01;19.40;99.90
35633;DHT22;21754;48.216;-1.628;2022-10-16T08:20:28;19.30;99.90
35633;DHT22;21754;48.216;-1.628;2022-10-16T08:22:54;19.20;99.90
35633;DHT22;21754;48.216;-1.628;2022-10-16T08:25:21;19.20;99.90
35633;DHT22;21754;48.216;-1.628;2022-10-16T08:27:47;19.30;99.90
35633;DHT22;21754;48.216;-1.628;2022-10-16T08:30:13;19.30;99.90
35633;DHT22;21754;48.216;-1.628;2022-10-16T08:32:39;19.50;99.90
35633;DHT22;21754;48.216;-1.628;2022-10-16T08:35:06;19.60;99.90
35633;DHT22;21754;48.216;-1.628;2022-10-16T08:37:32;19.60;99.90
35633;DHT22;21754;48.216;-1.628;2022-10-16T08:39:58;19.70;99.90
35633;DHT22;21754;48.216;-1.628;2022-10-16T08:48:26;19.60;99.90
35633;DHT22;21754;48.216;-1.628;2022-10-16T08:50:53;19.40;99.90
35633;DHT22;21754;48.216;-1.628;2022-10-16T08:53:30;19.50;99.90
35633;DHT22;21754;48.216;-1.628;2022-10-16T08:55:57;19.60;99.90
35633;DHT22;21754;48.216;-1.628;2022-10-16T08:58:28;19.70;99.90
35633;DHT22;21754;48.216;-1.628;2022-10-16T09:00:56;19.80;99.90
35633;DHT22;21754;48.216;-1.628;2022-10-16T09:06:40;19.80;99.90
35633;DHT22;21754;48.216;-1.628;2022-10-16T09:19:50;20.10;99.90
35633;DHT22;21754;48.216;-1.628;2022-10-16T09:22:17;20.10;99.90
35633;DHT22;21754;48.216;-1.628;2022-10-16T09:24:43;20.20;99.90
35633;DHT22;21754;48.216;-1.628;2022-10-16T09:27:13;20.20;99.90
35633;DHT22;21754;48.216;-1.628;2022-10-16T09:29:40;20.20;99.90
35633;DHT22;21754;48.216;-1.628;2022-10-16T09:32:15;20.20;99.90
35633;DHT22;21754;48.216;-1.628;2022-10-16T09:34:47;20.30;99.90
35633;DHT22;21754;48.216;-1.628;2022-10-16T09:37:16;20.30;99.90
35633;DHT22;21754;48.216;-1.628;2022-10-16T09:39:50;20.20;99.90
35633;DHT22;21754;48.216;-1.628;2022-10-16T09:42:27;20.10;99.90
35633;DHT22;21754;48.216;-1.628;2022-10-16T09:44:56;20.10;99.90
35633;DHT22;21754;48.216;-1.628;2022-10-16T09:47:27;20.20;99.90
35633;DHT22;21754;48.216;-1.628;2022-10-16T09:49:55;20.10;99.90
35633;DHT22;21754;48.216;-1.628;2022-10-16T09:52:23;20.00;99.90
35633;DHT22;21754;48.216;-1.628;2022-10-16T09:54:53;20.00;99.90
35633;DHT22;21754;48.216;-1.628;2022-10-16T09:57:20;20.10;99.90
35633;DHT22;21754;48.216;-1.628;2022-10-16T09:59:51;20.00;99.90
35633;DHT22;21754;48.216;-1.628;2022-10-16T10:02:20;19.90;99.90
35633;DHT22;21754;48.216;-1.628;2022-10-16T10:04:51;19.90;99.90
35633;DHT22;21754;48.216;-1.628;2022-10-16T10:07:24;20.00;99.90
35633;DHT22;21754;48.216;-1.628;2022-10-16T10:09:51;20.10;99.90
35633;DHT22;21754;48.216;-1.628;2022-10-16T10:12:27;20.20;99.90
35633;DHT22;21754;48.216;-1.628;2022-10-16T10:14:56;20.30;99.90
35633;DHT22;21754;48.216;-1.628;2022-10-16T10:17:24;20.40;99.90
35633;DHT22;21754;48.216;-1.628;2022-10-16T10:19:58;20.50;99.90
35633;DHT22;21754;48.216;-1.628;2022-10-16T10:25:15;20.60;99.90
35633;DHT22;21754;48.216;-1.628;2022-10-16T10:36:28;20.50;99.90
35633;DHT22;21754;48.216;-1.628;2022-10-16T10:39:06;20.40;99.90
35633;DHT22;21754;48.216;-1.628;2022-10-16T11:01:53;19.90;99.90
35633;DHT22;21754;48.216;-1.628;2022-10-16T11:07:02;19.60;99.90
35633;DHT22;21754;48.216;-1.628;2022-10-16T11:09:43;19.60;99.90
35633;DHT22;21754;48.216;-1.628;2022-10-16T11:12:20;19.60;99.90
35633;DHT22;21754;48.216;-1.628;2022-10-16T11:15:20;19.60;99.90
35633;DHT22;21754;48.216;-1.628;2022-10-16T11:18:10;19.70;99.90
35633;DHT22;21754;48.216;-1.628;2022-10-16T11:20:51;19.60;99.90
35633;DHT22;21754;48.216;-1.628;2022-10-16T11:23:25;19.60;99.90
35633;DHT22;21754;48.216;-1.628;2022-10-16T11:25:55;19.60;99.90
35633;DHT22;21754;48.216;-1.628;2022-10-16T11:28:31;19.60;99.90
35633;DHT22;21754;48.216;-1.628;2022-10-16T11:31:36;19.50;99.90
35633;DHT22;21754;48.216;-1.628;2022-10-16T11:34:21;19.50;99.90
35633;DHT22;21754;48.216;-1.628;2022-10-16T11:36:53;19.50;99.90
35633;DHT22;21754;48.216;-1.628;2022-10-16T11:47:47;19.60;99.90
35633;DHT22;21754;48.216;-1.628;2022-10-16T11:50:17;19.60;99.90
35633;DHT22;21754;48.216;-1.628;2022-10-16T11:55:43;19.60;99.90
35633;DHT22;21754;48.216;-1.628;2022-10-16T11:58:23;19.60;99.90
35633;DHT22;21754;48.216;-1.628;2022-10-16T12:03:59;19.70;99.90
35633;DHT22;21754;48.216;-1.628;2022-10-16T12:09:30;19.90;99.90
35633;DHT22;21754;48.216;-1.628;2022-10-16T12:11:57;19.90;99.90
35633;DHT22;21754;48.216;-1.628;2022-10-16T12:16:55;20.00;99.90
35633;DHT22;21754;48.216;-1.628;2022-10-16T12:19:22;19.90;99.90
35633;DHT22;21754;48.216;-1.628;2022-10-16T12:21:49;19.60;99.90
35633;DHT22;21754;48.216;-1.628;2022-10-16T12:24:42;19.40;99.90
35633;DHT22;21754;48.216;-1.628;2022-10-16T12:27:30;19.40;99.90
35633;DHT22;21754;48.216;-1.628;2022-10-16T12:30:00;19.50;99.90
35633;DHT22;21754;48.216;-1.628;2022-10-16T12:32:32;19.50;99.90
35633;DHT22;21754;48.216;-1.628;2022-10-16T12:35:00;19.60;99.90
35633;DHT22;21754;48.216;-1.628;2022-10-16T12:37:32;19.70;99.90
35633;DHT22;21754;48.216;-1.628;2022-10-16T12:39:59;19.80;99.90
35633;DHT22;21754;48.216;-1.628;2022-10-16T12:44:55;20.00;99.90
35633;DHT22;21754;48.216;-1.628;2022-10-16T12:47:46;19.90;99.90
35633;DHT22;21754;48.216;-1.628;2022-10-16T12:50:30;19.90;99.90
35633;DHT22;21754;48.216;-1.628;2022-10-16T12:52:57;19.80;99.90
35633;DHT22;21754;48.216;-1.628;2022-10-16T12:55:23;19.50;99.90
35633;DHT22;21754;48.216;-1.628;2022-10-16T13:00:56;19.50;99.90
35633;DHT22;21754;48.216;-1.628;2022-10-16T13:20:31;19.80;99.90
35633;DHT22;21754;48.216;-1.628;2022-10-16T13:23:26;19.90;99.90
35633;DHT22;21754;48.216;-1.628;2022-10-16T13:26:09;20.10;99.90
35633;DHT22;21754;48.216;-1.628;2022-10-16T13:28:39;20.30;99.90
35633;DHT22;21754;48.216;-1.628;2022-10-16T13:31:05;20.40;99.90
35633;DHT22;21754;48.216;-1.628;2022-10-16T13:33:40;20.40;99.90
35633;DHT22;21754;48.216;-1.628;2022-10-16T13:36:23;20.50;99.90
35633;DHT22;21754;48.216;-1.628;2022-10-16T13:41:37;20.70;99.90
35633;DHT22;21754;48.216;-1.628;2022-10-16T13:44:03;20.80;99.90
35633;DHT22;21754;48.216;-1.628;2022-10-16T13:46:29;20.70;99.90
35633;DHT22;21754;48.216;-1.628;2022-10-16T13:49:12;20.80;99.90
35633;DHT22;21754;48.216;-1.628;2022-10-16T13:51:38;20.80;99.90
35633;DHT22;21754;48.216;-1.628;2022-10-16T13:54:04;20.90;99.90
35633;DHT22;21754;48.216;-1.628;2022-10-16T13:56:32;21.00;99.90
35633;DHT22;21754;48.216;-1.628;2022-10-16T13:58:58;21.10;99.90
35633;DHT22;21754;48.216;-1.628;2022-10-16T14:01:29;21.10;99.90
35633;DHT22;21754;48.216;-1.628;2022-10-16T14:04:06;21.30;99.90
35633;DHT22;21754;48.216;-1.628;2022-10-16T14:06:32;21.30;99.90
35633;DHT22;21754;48.216;-1.628;2022-10-16T22:59:13;21.40;99.90
35633;DHT22;21754;48.216;-1.628;2022-10-16T23:01:41;18.90;99.90
35633;DHT22;21754;48.216;-1.628;2022-10-16T23:04:07;19.00;99.90
35633;DHT22;21754;48.216;-1.628;2022-10-16T23:06:33;19.00;99.90
35633;DHT22;21754;48.216;-1.628;2022-10-16T23:09:00;19.00;99.90
35633;DHT22;21754;48.216;-1.628;2022-10-16T23:11:27;18.90;99.90
35633;DHT22;21754;48.216;-1.628;2022-10-16T23:13:53;18.90;99.90
35633;DHT22;21754;48.216;-1.628;2022-10-16T23:16:20;18.90;99.90
35633;DHT22;21754;48.216;-1.628;2022-10-16T23:18:48;18.90;99.90
35633;DHT22;21754;48.216;-1.628;2022-10-16T23:21:18;18.90;99.90
35633;DHT22;21754;48.216;-1.628;2022-10-16T23:23:44;18.90;99.90
35633;DHT22;21754;48.216;-1.628;2022-10-16T23:26:12;19.00;99.90
35633;DHT22;21754;48.216;-1.628;2022-10-16T23:28:38;19.00;99.90
35633;DHT22;21754;48.216;-1.628;2022-10-16T23:31:05;19.00;99.90
35633;DHT22;21754;48.216;-1.628;2022-10-16T23:33:36;19.10;99.90
35633;DHT22;21754;48.216;-1.628;2022-10-16T23:36:06;19.10;99.90
35633;DHT22;21754;48.216;-1.628;2022-10-16T23:38:32;19.10;99.90
35633;DHT22;21754;48.216;-1.628;2022-10-16T23:40:58;19.00;99.90
35633;DHT22;21754;48.216;-1.628;2022-10-16T23:43:24;19.00;99.90
35633;DHT22;21754;48.216;-1.628;2022-10-16T23:45:50;19.00;99.90
35633;DHT22;21754;48.216;-1.628;2022-10-16T23:48:16;19.00;99.90
35633;DHT22;21754;48.216;-1.628;2022-10-16T23:50:41;19.00;99.90
35633;DHT22;21754;48.216;-1.628;2022-10-16T23:53:07;19.00;99.90
35633;DHT22;21754;48.216;-1.628;2022-10-16T23:55:33;19.00;99.90
35633;DHT22;21754;48.216;-1.628;2022-10-16T23:57:58;19.00;99.90
